createdAt,value
2016-09-18T00:00:51.321Z,16.16
2016-09-18T00:01:51.640Z,16.13
2016-09-18T00:02:51.320Z,16.12
2016-09-18T00:03:51.322Z,16.17
2016-09-18T00:04:51.334Z,16.09
2016-09-18T00:05:51.332Z,16.09
2016-09-18T00:06:51.337Z,16.09
2016-09-18T00:07:51.321Z,16.12
2016-09-18T00:08:51.338Z,16.09
2016-09-18T00:09:51.385Z,16.1
2016-09-18T00:10:51.337Z,16.1
2016-09-18T00:11:51.632Z,16.13
2016-09-18T00:12:51.326Z,16.1
2016-09-18T00:13:51.326Z,16.09
2016-09-18T00:14:51.327Z,16.1
2016-09-18T00:15:51.337Z,16.04
2016-09-18T00:16:51.343Z,16.1
2016-09-18T00:17:51.339Z,16.08
2016-09-18T00:18:51.340Z,16.05
2016-09-18T00:19:51.330Z,16.08
2016-09-18T00:20:51.340Z,16.04
2016-09-18T00:21:51.329Z,16.01
2016-09-18T00:22:51.331Z,16.05
2016-09-18T00:23:51.330Z,16.08
2016-09-18T00:24:51.344Z,16.05
2016-09-18T00:25:51.647Z,16.04
2016-09-18T00:26:51.333Z,16.04
2016-09-18T00:27:51.347Z,15.98
2016-09-18T00:28:51.331Z,15.98
2016-09-18T00:29:51.343Z,16
2016-09-18T00:30:51.335Z,16.05
2016-09-18T00:31:51.334Z,16.05
2016-09-18T00:32:51.348Z,16.02
2016-09-18T00:33:51.348Z,16.04
2016-09-18T00:34:51.336Z,16.09
2016-09-18T00:35:51.337Z,16.1
2016-09-18T00:36:51.337Z,16.05
2016-09-18T00:37:51.348Z,16.04
2016-09-18T00:38:51.349Z,16.09
2016-09-18T00:39:51.643Z,16.1
2016-09-18T00:40:51.354Z,16.08
2016-09-18T00:41:51.352Z,16.01
2016-09-18T00:42:51.339Z,16.08
2016-09-18T00:43:51.342Z,16.04
2016-09-18T00:44:51.340Z,16.08
2016-09-18T00:45:51.339Z,16.09
2016-09-18T00:46:51.343Z,16.1
2016-09-18T00:47:51.645Z,16.09
2016-09-18T00:48:51.369Z,16.08
2016-09-18T00:49:51.344Z,16.01
2016-09-18T00:50:51.342Z,16.09
2016-09-18T00:51:51.359Z,16.09
2016-09-18T00:52:51.371Z,16.12
2016-09-18T00:53:51.352Z,16.1
2016-09-18T00:54:51.346Z,16.05
2016-09-18T00:55:51.345Z,16.08
2016-09-18T00:56:51.347Z,16.08
2016-09-18T00:57:51.346Z,16.01
2016-09-18T00:58:51.344Z,16.09
2016-09-18T00:59:51.348Z,16.1
2016-09-18T01:00:51.353Z,16.08
2016-09-18T01:01:51.354Z,16.02
2016-09-18T01:02:51.351Z,16.08
2016-09-18T01:03:51.597Z,16.15
2016-09-18T01:04:51.350Z,16.04
2016-09-18T01:05:51.361Z,16.12
2016-09-18T01:06:51.351Z,16.05
2016-09-18T01:07:51.594Z,16.09
2016-09-18T01:08:51.365Z,16.05
2016-09-18T01:09:51.498Z,16.02
2016-09-18T01:10:51.353Z,16.05
2016-09-18T01:11:51.351Z,16.08
2016-09-18T01:12:51.353Z,16.05
2016-09-18T01:13:51.362Z,16.08
2016-09-18T01:14:51.365Z,16.09
2016-09-18T01:15:51.371Z,16.09
2016-09-18T01:16:51.365Z,16.04
2016-09-18T01:17:51.360Z,16.05
2016-09-18T01:18:51.367Z,16.04
2016-09-18T01:19:51.356Z,16.05
2016-09-18T01:20:51.357Z,16.08
2016-09-18T01:21:51.383Z,16.09
2016-09-18T01:22:51.607Z,16.02
2016-09-18T01:23:51.373Z,16.05
2016-09-18T01:24:51.370Z,16.02
2016-09-18T01:25:51.369Z,16.05
2016-09-18T01:26:51.373Z,16.09
2016-09-18T01:27:51.358Z,16.04
2016-09-18T01:28:51.365Z,16.13
2016-09-18T01:29:51.380Z,16.05
2016-09-18T01:30:51.387Z,16.1
2016-09-18T01:31:51.375Z,16.09
2016-09-18T01:32:51.380Z,16.05
2016-09-18T01:33:51.373Z,16.09
2016-09-18T01:34:51.371Z,16.16
2016-09-18T01:35:51.376Z,16.1
2016-09-18T01:36:51.378Z,16.1
2016-09-18T01:37:51.378Z,16.16
2016-09-18T01:38:51.375Z,16.16
2016-09-18T01:39:51.380Z,16.13
2016-09-18T01:40:51.372Z,16.15
2016-09-18T01:41:51.606Z,16.17
2016-09-18T01:42:51.394Z,16.08
2016-09-18T01:43:51.390Z,16.16
2016-09-18T01:44:51.381Z,16.09
2016-09-18T01:45:51.378Z,16.1
2016-09-18T01:46:51.377Z,16.12
2016-09-18T01:47:51.384Z,16.04
2016-09-18T01:48:51.372Z,16.17
2016-09-18T01:49:51.384Z,16.13
2016-09-18T01:50:51.380Z,16.2
2016-09-18T01:51:51.383Z,16.16
2016-09-18T01:52:51.399Z,16.09
2016-09-18T01:53:51.378Z,16.13
2016-09-18T01:54:51.629Z,16.09
2016-09-18T01:55:51.390Z,16.12
2016-09-18T01:56:51.385Z,16.13
2016-09-18T01:57:51.381Z,16.04
2016-09-18T01:58:51.384Z,16.08
2016-09-18T01:59:51.395Z,16.1
2016-09-18T02:00:51.626Z,16.05
2016-09-18T02:01:51.382Z,16.04
2016-09-18T02:02:51.387Z,16.08
2016-09-18T02:03:51.384Z,16.04
2016-09-18T02:04:51.388Z,16.12
2016-09-18T02:05:51.392Z,16.05
2016-09-18T02:06:51.386Z,16.04
2016-09-18T02:07:51.396Z,16.05
2016-09-18T02:08:51.390Z,16.05
2016-09-18T02:09:51.437Z,16.05
2016-09-18T02:10:51.388Z,15.98
2016-09-18T02:11:51.391Z,16.09
2016-09-18T02:12:51.401Z,16.08
2016-09-18T02:13:51.395Z,16.05
2016-09-18T02:14:51.699Z,16.08
2016-09-18T02:15:51.398Z,16.09
2016-09-18T02:16:51.401Z,16.12
2016-09-18T02:17:51.401Z,16.04
2016-09-18T02:18:51.397Z,16.16
2016-09-18T02:19:51.403Z,16.05
2016-09-18T02:20:51.397Z,16.08
2016-09-18T02:21:51.403Z,16.1
2016-09-18T02:22:51.405Z,16.08
2016-09-18T02:23:51.404Z,16.08
2016-09-18T02:24:51.400Z,16.04
2016-09-18T02:25:51.404Z,16.08
2016-09-18T02:26:51.402Z,16.1
2016-09-18T02:27:51.407Z,16.16
2016-09-18T02:28:51.409Z,16.09
2016-09-18T02:29:51.403Z,16.17
2016-09-18T02:30:51.409Z,16.17
2016-09-18T02:31:51.645Z,16.16
2016-09-18T02:32:51.414Z,16.23
2016-09-18T02:33:51.406Z,16.2
2016-09-18T02:34:51.407Z,16.08
2016-09-18T02:35:51.412Z,16.08
2016-09-18T02:36:51.410Z,16.08
2016-09-18T02:37:51.410Z,16.16
2016-09-18T02:38:51.732Z,16.12
2016-09-18T02:39:51.411Z,16.1
2016-09-18T02:40:51.416Z,16.05
2016-09-18T02:41:51.734Z,16.17
2016-09-18T02:42:51.415Z,16.1
2016-09-18T02:43:51.414Z,16.2
2016-09-18T02:44:51.413Z,16.12
2016-09-18T02:45:51.483Z,16.15
2016-09-18T02:46:51.418Z,16.15
2016-09-18T02:47:51.420Z,16.15
2016-09-18T02:48:51.424Z,16.16
2016-09-18T02:49:51.432Z,16.13
2016-09-18T02:50:51.668Z,16.13
2016-09-18T02:51:51.740Z,16.13
2016-09-18T02:52:51.671Z,16.12
2016-09-18T02:53:51.423Z,16.13
2016-09-18T02:54:51.665Z,16.08
2016-09-18T02:55:51.421Z,16.16
2016-09-18T02:56:51.420Z,16.1
2016-09-18T02:57:51.423Z,16.1
2016-09-18T02:58:51.423Z,16.12
2016-09-18T02:59:51.422Z,16.09
2016-09-18T03:00:51.429Z,16.05
2016-09-18T03:01:51.440Z,16.09
2016-09-18T03:02:51.436Z,16.08
2016-09-18T03:03:51.430Z,16.08
2016-09-18T03:04:51.433Z,16.13
2016-09-18T03:05:51.433Z,16.09
2016-09-18T03:06:51.435Z,16.15
2016-09-18T03:07:51.433Z,16.16
2016-09-18T03:08:51.431Z,16.1
2016-09-18T03:09:51.486Z,16.1
2016-09-18T03:10:51.427Z,16.04
2016-09-18T03:11:51.430Z,16.1
2016-09-18T03:12:51.435Z,16.08
2016-09-18T03:13:51.432Z,16.13
2016-09-18T03:14:51.441Z,16.08
2016-09-18T03:15:51.448Z,16.09
2016-09-18T03:16:51.442Z,16.12
2016-09-18T03:17:51.436Z,16.08
2016-09-18T03:18:51.442Z,16.08
2016-09-18T03:19:51.465Z,16.13
2016-09-18T03:20:51.439Z,16.08
2016-09-18T03:21:51.441Z,16.04
2016-09-18T03:22:51.441Z,16.05
2016-09-18T03:23:51.445Z,16.02
2016-09-18T03:24:51.761Z,16.04
2016-09-18T03:25:51.480Z,16.04
2016-09-18T03:26:51.448Z,16.08
2016-09-18T03:27:51.454Z,16.05
2016-09-18T03:28:51.450Z,16.09
2016-09-18T03:29:51.759Z,16.09
2016-09-18T03:30:51.453Z,16.04
2016-09-18T03:31:51.452Z,16.08
2016-09-18T03:32:51.462Z,16.09
2016-09-18T03:33:51.458Z,16.04
2016-09-18T03:34:51.451Z,16.09
2016-09-18T03:35:51.764Z,16.08
2016-09-18T03:36:51.796Z,16.08
2016-09-18T03:37:51.455Z,16.02
2016-09-18T03:38:51.474Z,16.04
2016-09-18T03:39:51.476Z,16.08
2016-09-18T03:40:51.459Z,16.04
2016-09-18T03:41:51.456Z,16.04
2016-09-18T03:42:51.477Z,16.08
2016-09-18T03:43:51.458Z,16.02
2016-09-18T03:44:51.459Z,16.08
2016-09-18T03:45:51.457Z,16.09
2016-09-18T03:46:51.460Z,16.09
2016-09-18T03:47:51.460Z,16.09
2016-09-18T03:48:51.458Z,16.13
2016-09-18T03:49:51.466Z,16.04
2016-09-18T03:50:51.459Z,16.17
2016-09-18T03:51:51.464Z,16.05
2016-09-18T03:52:51.468Z,16.12
2016-09-18T03:53:51.467Z,16.08
2016-09-18T03:54:51.464Z,16.1
2016-09-18T03:55:51.466Z,16.08
2016-09-18T03:56:51.467Z,16.12
2016-09-18T03:57:51.465Z,16.05
2016-09-18T03:58:51.470Z,16.1
2016-09-18T03:59:51.470Z,16.02
2016-09-18T04:00:51.469Z,16.05
2016-09-18T04:01:51.485Z,16.1
2016-09-18T04:02:51.483Z,16.12
2016-09-18T04:03:51.472Z,16.2
2016-09-18T04:04:51.717Z,16.09
2016-09-18T04:05:51.471Z,16.09
2016-09-18T04:06:51.474Z,16.13
2016-09-18T04:07:51.473Z,16.05
2016-09-18T04:08:51.501Z,16.09
2016-09-18T04:09:51.624Z,16.08
2016-09-18T04:10:51.488Z,16.16
2016-09-18T04:11:51.478Z,16.1
2016-09-18T04:12:51.496Z,16.24
2016-09-18T04:13:51.494Z,16.15
2016-09-18T04:14:51.505Z,16.13
2016-09-18T04:15:51.491Z,16.15
2016-09-18T04:16:51.481Z,16.13
2016-09-18T04:17:51.479Z,16.15
2016-09-18T04:18:51.493Z,16.1
2016-09-18T04:19:51.480Z,16.15
2016-09-18T04:20:51.493Z,16.24
2016-09-18T04:21:51.491Z,16.13
2016-09-18T04:22:51.496Z,16.21
2016-09-18T04:23:51.500Z,16.17
2016-09-18T04:24:51.496Z,16.16
2016-09-18T04:25:51.506Z,16.13
2016-09-18T04:26:51.495Z,16.15
2016-09-18T04:27:51.516Z,16.23
2016-09-18T04:28:51.496Z,16.29
2016-09-18T04:29:51.501Z,16.29
2016-09-18T04:30:51.499Z,16.2
2016-09-18T04:31:51.503Z,16.21
2016-09-18T04:32:51.500Z,16.32
2016-09-18T04:33:51.499Z,16.21
2016-09-18T04:34:51.509Z,16.28
2016-09-18T04:35:51.501Z,16.26
2016-09-18T04:36:51.500Z,16.31
2016-09-18T04:37:51.510Z,16.23
2016-09-18T04:38:51.504Z,16.31
2016-09-18T04:39:51.511Z,16.28
2016-09-18T04:40:51.516Z,16.29
2016-09-18T04:41:51.537Z,16.31
2016-09-18T04:42:51.502Z,16.21
2016-09-18T04:43:51.521Z,16.24
2016-09-18T04:44:51.750Z,16.28
2016-09-18T04:45:51.503Z,16.26
2016-09-18T04:46:51.526Z,16.29
2016-09-18T04:47:51.520Z,16.28
2016-09-18T04:48:51.528Z,16.29
2016-09-18T04:49:51.525Z,16.24
2016-09-18T04:50:51.520Z,16.24
2016-09-18T04:51:51.527Z,16.21
2016-09-18T04:52:51.831Z,16.29
2016-09-18T04:53:51.831Z,16.31
2016-09-18T04:54:51.521Z,16.29
2016-09-18T04:55:51.523Z,16.29
2016-09-18T04:56:51.529Z,16.26
2016-09-18T04:57:51.525Z,16.15
2016-09-18T04:58:51.529Z,16.28
2016-09-18T04:59:51.530Z,16.28
2016-09-18T05:00:51.529Z,16.28
2016-09-18T05:01:51.537Z,16.33
2016-09-18T05:02:51.529Z,16.28
2016-09-18T05:03:51.764Z,16.28
2016-09-18T05:04:51.530Z,16.31
2016-09-18T05:05:51.528Z,16.31
2016-09-18T05:06:51.532Z,16.21
2016-09-18T05:07:51.531Z,16.23
2016-09-18T05:08:51.528Z,16.26
2016-09-18T05:09:51.677Z,16.26
2016-09-18T05:10:51.545Z,16.17
2016-09-18T05:11:51.550Z,16.26
2016-09-18T05:12:51.529Z,16.26
2016-09-18T05:13:51.531Z,16.33
2016-09-18T05:14:51.544Z,16.1
2016-09-18T05:15:51.536Z,16.15
2016-09-18T05:16:51.536Z,16.1
2016-09-18T05:17:51.881Z,16.16
2016-09-18T05:18:51.542Z,16.21
2016-09-18T05:19:51.545Z,16.17
2016-09-18T05:20:51.534Z,16.21
2016-09-18T05:21:51.543Z,16.26
2016-09-18T05:22:51.537Z,16.21
2016-09-18T05:23:51.542Z,16.2
2016-09-18T05:24:51.535Z,16.2
2016-09-18T05:25:51.560Z,16.28
2016-09-18T05:26:51.548Z,16.31
2016-09-18T05:27:51.550Z,16.24
2016-09-18T05:28:51.546Z,16.23
2016-09-18T05:29:51.550Z,16.35
2016-09-18T05:30:51.548Z,16.31
2016-09-18T05:31:51.556Z,16.32
2016-09-18T05:32:51.550Z,16.35
2016-09-18T05:33:51.553Z,16.35
2016-09-18T05:34:51.553Z,16.26
2016-09-18T05:35:51.554Z,16.21
2016-09-18T05:36:51.544Z,16.39
2016-09-18T05:37:51.552Z,16.33
2016-09-18T05:38:51.554Z,16.33
2016-09-18T05:39:51.558Z,16.28
2016-09-18T05:40:51.567Z,16.38
2016-09-18T05:41:51.555Z,16.29
2016-09-18T05:42:51.558Z,16.31
2016-09-18T05:43:51.560Z,16.28
2016-09-18T05:44:51.559Z,16.32
2016-09-18T05:45:51.556Z,16.32
2016-09-18T05:46:51.558Z,16.36
2016-09-18T05:47:51.568Z,16.41
2016-09-18T05:48:51.561Z,16.42
2016-09-18T05:49:51.569Z,16.39
2016-09-18T05:50:51.564Z,16.46
2016-09-18T05:51:51.561Z,16.38
2016-09-18T05:52:51.570Z,16.46
2016-09-18T05:53:51.564Z,16.42
2016-09-18T05:54:51.565Z,16.38
2016-09-18T05:55:51.566Z,16.42
2016-09-18T05:56:51.574Z,16.42
2016-09-18T05:57:51.567Z,16.39
2016-09-18T05:58:51.568Z,16.46
2016-09-18T05:59:51.896Z,16.47
2016-09-18T06:00:51.571Z,16.39
2016-09-18T06:01:51.568Z,16.42
2016-09-18T06:02:51.566Z,16.42
2016-09-18T06:03:51.575Z,16.51
2016-09-18T06:04:51.569Z,16.42
2016-09-18T06:05:51.578Z,16.39
2016-09-18T06:06:51.575Z,16.46
2016-09-18T06:07:51.577Z,16.49
2016-09-18T06:08:51.575Z,16.42
2016-09-18T06:09:51.720Z,16.42
2016-09-18T06:10:51.591Z,16.47
2016-09-18T06:11:51.580Z,16.39
2016-09-18T06:12:51.581Z,16.47
2016-09-18T06:13:51.579Z,16.47
2016-09-18T06:14:51.585Z,16.49
2016-09-18T06:15:51.579Z,16.57
2016-09-18T06:16:51.583Z,16.61
2016-09-18T06:17:51.584Z,16.56
2016-09-18T06:18:51.903Z,16.56
2016-09-18T06:19:51.584Z,16.58
2016-09-18T06:20:51.835Z,16.6
2016-09-18T06:21:51.586Z,16.54
2016-09-18T06:22:51.584Z,16.65
2016-09-18T06:23:51.588Z,16.71
2016-09-18T06:24:51.589Z,16.5
2016-09-18T06:25:51.592Z,16.65
2016-09-18T06:26:51.592Z,16.6
2016-09-18T06:27:51.839Z,16.54
2016-09-18T06:28:51.596Z,16.65
2016-09-18T06:29:51.596Z,16.51
2016-09-18T06:30:51.595Z,16.56
2016-09-18T06:31:51.605Z,16.64
2016-09-18T06:32:51.596Z,16.64
2016-09-18T06:33:51.844Z,16.66
2016-09-18T06:34:51.615Z,16.69
2016-09-18T06:35:51.595Z,16.71
2016-09-18T06:36:51.603Z,16.72
2016-09-18T06:37:51.611Z,16.69
2016-09-18T06:38:51.615Z,16.78
2016-09-18T06:39:51.604Z,16.74
2016-09-18T06:40:51.603Z,16.79
2016-09-18T06:41:51.607Z,16.76
2016-09-18T06:42:51.604Z,16.75
2016-09-18T06:43:51.612Z,16.9
2016-09-18T06:44:51.612Z,16.76
2016-09-18T06:45:51.858Z,16.81
2016-09-18T06:46:51.617Z,16.78
2016-09-18T06:47:51.614Z,16.87
2016-09-18T06:48:51.633Z,16.89
2016-09-18T06:49:51.624Z,16.79
2016-09-18T06:50:51.612Z,16.81
2016-09-18T06:51:51.618Z,16.76
2016-09-18T06:52:51.625Z,16.79
2016-09-18T06:53:51.619Z,16.79
2016-09-18T06:54:51.621Z,16.87
2016-09-18T06:55:51.947Z,16.81
2016-09-18T06:56:51.626Z,16.87
2016-09-18T06:57:51.623Z,16.78
2016-09-18T06:58:51.627Z,16.89
2016-09-18T06:59:51.626Z,16.75
2016-09-18T07:00:51.631Z,16.76
2016-09-18T07:01:51.628Z,16.84
2016-09-18T07:02:51.629Z,16.84
2016-09-18T07:03:51.632Z,16.81
2016-09-18T07:04:51.661Z,16.75
2016-09-18T07:05:51.654Z,16.79
2016-09-18T07:06:51.634Z,16.76
2016-09-18T07:07:51.638Z,16.83
2016-09-18T07:08:51.641Z,16.87
2016-09-18T07:09:51.844Z,16.83
2016-09-18T07:10:51.639Z,16.86
2016-09-18T07:11:51.643Z,16.86
2016-09-18T07:12:51.965Z,16.84
2016-09-18T07:13:51.650Z,16.86
2016-09-18T07:14:51.650Z,16.83
2016-09-18T07:15:51.650Z,16.83
2016-09-18T07:16:51.645Z,16.78
2016-09-18T07:17:51.653Z,16.81
2016-09-18T07:18:51.654Z,16.78
2016-09-18T07:19:51.963Z,16.86
2016-09-18T07:20:51.660Z,16.83
2016-09-18T07:21:51.655Z,16.83
2016-09-18T07:22:51.662Z,16.75
2016-09-18T07:23:51.655Z,16.74
2016-09-18T07:24:51.660Z,16.76
2016-09-18T07:25:51.657Z,16.81
2016-09-18T07:26:51.662Z,16.78
2016-09-18T07:27:51.656Z,16.79
2016-09-18T07:28:51.660Z,16.75
2016-09-18T07:29:51.977Z,16.75
2016-09-18T07:30:51.663Z,16.86
2016-09-18T07:31:51.668Z,16.86
2016-09-18T07:32:51.664Z,16.78
2016-09-18T07:33:51.676Z,16.87
2016-09-18T07:34:51.668Z,16.75
2016-09-18T07:35:51.678Z,16.76
2016-09-18T07:36:51.687Z,16.76
2016-09-18T07:37:51.678Z,16.78
2016-09-18T07:38:51.693Z,16.81
2016-09-18T07:39:51.688Z,16.78
2016-09-18T07:40:51.681Z,16.89
2016-09-18T07:41:51.678Z,16.89
2016-09-18T07:42:51.923Z,16.76
2016-09-18T07:43:51.679Z,16.78
2016-09-18T07:44:51.696Z,16.81
2016-09-18T07:45:51.683Z,16.84
2016-09-18T07:46:51.679Z,16.76
2016-09-18T07:47:51.683Z,16.74
2016-09-18T07:48:51.683Z,16.79
2016-09-18T07:49:51.694Z,16.72
2016-09-18T07:50:51.685Z,16.69
2016-09-18T07:51:51.695Z,16.76
2016-09-18T07:52:51.687Z,16.79
2016-09-18T07:53:51.686Z,16.75
2016-09-18T07:54:51.696Z,16.83
2016-09-18T07:55:51.695Z,16.87
2016-09-18T07:56:51.698Z,16.78
2016-09-18T07:57:51.696Z,16.9
2016-09-18T07:58:51.700Z,16.75
2016-09-18T07:59:51.698Z,16.79
2016-09-18T08:00:52.014Z,16.72
2016-09-18T08:01:51.940Z,16.75
2016-09-18T08:02:51.705Z,16.83
2016-09-18T08:03:51.717Z,16.76
2016-09-18T08:04:51.702Z,16.79
2016-09-18T08:05:51.702Z,16.83
2016-09-18T08:06:51.709Z,16.89
2016-09-18T08:07:51.702Z,16.93
2016-09-18T08:08:51.707Z,17.01
2016-09-18T08:09:51.803Z,17.09
2016-09-18T08:10:51.702Z,17.09
2016-09-18T08:11:51.707Z,17.15
2016-09-18T08:12:51.705Z,17.19
2016-09-18T08:13:51.716Z,17.19
2016-09-18T08:14:51.713Z,17.19
2016-09-18T08:15:51.718Z,17.29
2016-09-18T08:16:51.729Z,17.34
2016-09-18T08:17:51.712Z,17.42
2016-09-18T08:18:51.714Z,17.31
2016-09-18T08:19:51.712Z,17.42
2016-09-18T08:20:51.724Z,17.38
2016-09-18T08:21:51.717Z,17.34
2016-09-18T08:22:51.720Z,17.3
2016-09-18T08:23:51.723Z,17.41
2016-09-18T08:24:51.729Z,17.34
2016-09-18T08:25:51.725Z,17.51
2016-09-18T08:26:51.726Z,17.39
2016-09-18T08:27:51.735Z,17.44
2016-09-18T08:28:51.731Z,17.48
2016-09-18T08:29:51.730Z,17.44
2016-09-18T08:30:51.733Z,17.34
2016-09-18T08:31:51.732Z,17.3
2016-09-18T08:32:51.737Z,17.33
2016-09-18T08:33:51.736Z,17.34
2016-09-18T08:34:51.733Z,17.23
2016-09-18T08:35:51.737Z,17.3
2016-09-18T08:36:51.736Z,17.22
2016-09-18T08:37:51.739Z,17.2
2016-09-18T08:38:51.740Z,17.26
2016-09-18T08:39:51.759Z,17.3
2016-09-18T08:40:52.059Z,17.29
2016-09-18T08:41:51.745Z,17.31
2016-09-18T08:42:51.748Z,17.41
2016-09-18T08:43:51.747Z,17.3
2016-09-18T08:44:51.748Z,17.34
2016-09-18T08:45:51.756Z,17.45
2016-09-18T08:46:52.067Z,17.42
2016-09-18T08:47:51.757Z,17.31
2016-09-18T08:48:52.066Z,17.33
2016-09-18T08:49:51.754Z,17.38
2016-09-18T08:50:51.795Z,17.41
2016-09-18T08:51:51.755Z,17.42
2016-09-18T08:52:51.765Z,17.29
2016-09-18T08:53:51.771Z,17.31
2016-09-18T08:54:51.768Z,17.34
2016-09-18T08:55:51.776Z,17.39
2016-09-18T08:56:52.009Z,17.36
2016-09-18T08:57:51.772Z,17.33
2016-09-18T08:58:51.771Z,17.45
2016-09-18T08:59:51.773Z,17.33
2016-09-18T09:00:51.775Z,17.27
2016-09-18T09:01:51.779Z,17.23
2016-09-18T09:02:51.786Z,17.19
2016-09-18T09:03:51.773Z,17.27
2016-09-18T09:04:51.778Z,17.23
2016-09-18T09:05:51.776Z,17.26
2016-09-18T09:06:51.778Z,17.24
2016-09-18T09:07:51.779Z,17.2
2016-09-18T09:08:51.786Z,17.23
2016-09-18T09:09:51.938Z,17.2
2016-09-18T09:10:51.781Z,17.24
2016-09-18T09:11:51.787Z,17.15
2016-09-18T09:12:51.784Z,17.2
2016-09-18T09:13:51.787Z,17.22
2016-09-18T09:14:51.786Z,17.23
2016-09-18T09:15:51.788Z,17.2
2016-09-18T09:16:51.785Z,17.19
2016-09-18T09:17:51.790Z,17.3
2016-09-18T09:18:51.790Z,17.27
2016-09-18T09:19:52.042Z,17.3
2016-09-18T09:20:51.794Z,17.31
2016-09-18T09:21:51.794Z,17.36
2016-09-18T09:22:51.796Z,17.36
2016-09-18T09:23:51.813Z,17.33
2016-09-18T09:24:51.797Z,17.34
2016-09-18T09:25:51.798Z,17.36
2016-09-18T09:26:51.801Z,17.33
2016-09-18T09:27:51.800Z,17.39
2016-09-18T09:28:51.805Z,17.34
2016-09-18T09:29:51.805Z,17.33
2016-09-18T09:30:51.805Z,17.3
2016-09-18T09:31:51.808Z,17.29
2016-09-18T09:32:51.804Z,17.34
2016-09-18T09:33:51.812Z,17.41
2016-09-18T09:34:51.808Z,17.38
2016-09-18T09:35:51.813Z,17.36
2016-09-18T09:36:51.812Z,17.34
2016-09-18T09:37:51.827Z,17.42
2016-09-18T09:38:51.827Z,17.3
2016-09-18T09:39:51.818Z,17.33
2016-09-18T09:40:51.828Z,17.46
2016-09-18T09:41:51.829Z,17.34
2016-09-18T09:42:51.831Z,17.41
2016-09-18T09:43:51.822Z,17.39
2016-09-18T09:44:51.839Z,17.48
2016-09-18T09:45:51.826Z,17.54
2016-09-18T09:46:51.824Z,17.51
2016-09-18T09:47:51.827Z,17.59
2016-09-18T09:48:52.140Z,17.54
2016-09-18T09:49:51.838Z,17.6
2016-09-18T09:50:51.841Z,17.67
2016-09-18T09:51:51.841Z,17.68
2016-09-18T09:52:51.842Z,17.76
2016-09-18T09:53:51.841Z,17.71
2016-09-18T09:54:51.842Z,17.74
2016-09-18T09:55:51.844Z,17.85
2016-09-18T09:56:51.841Z,17.78
2016-09-18T09:57:51.842Z,17.76
2016-09-18T09:58:51.856Z,17.74
2016-09-18T09:59:51.859Z,17.71
2016-09-18T10:00:51.848Z,17.76
2016-09-18T10:01:52.161Z,17.76
2016-09-18T10:02:51.850Z,17.72
2016-09-18T10:03:51.852Z,17.79
2016-09-18T10:04:52.097Z,17.76
2016-09-18T10:05:51.854Z,17.7
2016-09-18T10:06:51.856Z,17.68
2016-09-18T10:07:51.853Z,17.7
2016-09-18T10:08:51.867Z,17.65
2016-09-18T10:09:51.910Z,17.71
2016-09-18T10:10:51.859Z,17.7
2016-09-18T10:11:51.860Z,17.68
2016-09-18T10:12:51.863Z,17.65
2016-09-18T10:13:51.862Z,17.65
2016-09-18T10:14:51.907Z,17.68
2016-09-18T10:15:51.871Z,17.6
2016-09-18T10:16:51.870Z,17.63
2016-09-18T10:17:51.875Z,17.67
2016-09-18T10:18:51.869Z,17.67
2016-09-18T10:19:51.877Z,17.68
2016-09-18T10:20:51.874Z,17.71
2016-09-18T10:21:51.880Z,17.72
2016-09-18T10:22:52.193Z,17.64
2016-09-18T10:23:51.880Z,17.64
2016-09-18T10:24:51.879Z,17.71
2016-09-18T10:25:51.885Z,17.64
2016-09-18T10:26:51.884Z,17.72
2016-09-18T10:27:51.887Z,17.64
2016-09-18T10:28:51.888Z,17.65
2016-09-18T10:29:51.888Z,17.59
2016-09-18T10:30:51.898Z,17.63
2016-09-18T10:31:51.894Z,17.67
2016-09-18T10:32:51.895Z,17.57
2016-09-18T10:33:51.900Z,17.65
2016-09-18T10:34:51.905Z,17.67
2016-09-18T10:35:51.901Z,17.72
2016-09-18T10:36:51.907Z,17.78
2016-09-18T10:37:51.903Z,17.83
2016-09-18T10:38:51.905Z,17.79
2016-09-18T10:39:51.903Z,17.82
2016-09-18T10:40:51.910Z,17.9
2016-09-18T10:41:51.909Z,17.79
2016-09-18T10:42:51.910Z,17.82
2016-09-18T10:43:51.913Z,17.85
2016-09-18T10:44:51.915Z,17.82
2016-09-18T10:45:51.919Z,17.74
2016-09-18T10:46:51.917Z,17.85
2016-09-18T10:47:51.921Z,17.76
2016-09-18T10:48:51.918Z,17.74
2016-09-18T10:49:51.927Z,17.7
2016-09-18T10:50:51.932Z,17.72
2016-09-18T10:51:51.940Z,17.68
2016-09-18T10:52:51.934Z,17.71
2016-09-18T10:53:52.193Z,17.76
2016-09-18T10:54:51.938Z,17.7
2016-09-18T10:55:51.955Z,17.74
2016-09-18T10:56:51.937Z,17.7
2016-09-18T10:57:51.970Z,17.67
2016-09-18T10:58:52.264Z,17.68
2016-09-18T10:59:51.941Z,17.67
2016-09-18T11:00:51.961Z,17.63
2016-09-18T11:01:51.943Z,17.65
2016-09-18T11:02:51.968Z,17.65
2016-09-18T11:03:51.948Z,17.63
2016-09-18T11:04:51.945Z,17.67
2016-09-18T11:05:51.956Z,17.64
2016-09-18T11:06:52.203Z,17.64
2016-09-18T11:07:51.960Z,17.65
2016-09-18T11:08:51.959Z,17.68
2016-09-18T11:09:52.115Z,17.72
2016-09-18T11:10:51.959Z,17.74
2016-09-18T11:11:51.968Z,17.78
2016-09-18T11:12:51.965Z,17.79
2016-09-18T11:13:51.960Z,17.8
2016-09-18T11:14:51.961Z,17.78
2016-09-18T11:15:51.971Z,17.82
2016-09-18T11:16:51.968Z,17.85
2016-09-18T11:17:51.957Z,17.82
2016-09-18T11:18:51.965Z,17.98
2016-09-18T11:19:51.965Z,17.9
2016-09-18T11:20:51.968Z,17.94
2016-09-18T11:21:51.968Z,17.95
2016-09-18T11:22:51.974Z,18.01
2016-09-18T11:23:51.973Z,17.95
2016-09-18T11:24:51.979Z,18.04
2016-09-18T11:25:51.976Z,18.11
2016-09-18T11:26:51.975Z,18
2016-09-18T11:27:51.994Z,18.03
2016-09-18T11:28:51.986Z,18.04
2016-09-18T11:29:51.983Z,18.03
2016-09-18T11:30:51.983Z,18.1
2016-09-18T11:31:51.984Z,18.08
2016-09-18T11:32:51.988Z,18.04
2016-09-18T11:33:51.996Z,18.04
2016-09-18T11:34:52.001Z,18.04
2016-09-18T11:35:51.998Z,18.13
2016-09-18T11:36:52.003Z,17.98
2016-09-18T11:37:52.000Z,18.05
2016-09-18T11:38:52.001Z,18.05
2016-09-18T11:39:52.262Z,18.11
2016-09-18T11:40:52.005Z,18.11
2016-09-18T11:41:52.010Z,18.13
2016-09-18T11:42:52.005Z,18.11
2016-09-18T11:43:52.009Z,18.19
2016-09-18T11:44:52.010Z,18.22
2016-09-18T11:45:52.010Z,18.2
2016-09-18T11:46:52.330Z,18.2
2016-09-18T11:47:52.014Z,18.23
2016-09-18T11:48:52.012Z,18.25
2016-09-18T11:49:52.017Z,18.25
2016-09-18T11:50:52.015Z,18.16
2016-09-18T11:51:52.021Z,18.13
2016-09-18T11:52:52.024Z,18.11
2016-09-18T11:53:52.022Z,18.11
2016-09-18T11:54:52.025Z,18.15
2016-09-18T11:55:52.024Z,18.11
2016-09-18T11:56:52.029Z,18.15
2016-09-18T11:57:52.032Z,18.01
2016-09-18T11:58:52.032Z,18
2016-09-18T11:59:52.356Z,17.87
2016-09-18T12:00:52.040Z,18.01
2016-09-18T12:01:52.037Z,17.95
2016-09-18T12:02:52.039Z,17.97
2016-09-18T12:03:52.038Z,17.85
2016-09-18T12:04:52.055Z,17.94
2016-09-18T12:05:52.052Z,17.95
2016-09-18T12:06:52.048Z,17.87
2016-09-18T12:07:52.054Z,17.87
2016-09-18T12:08:52.048Z,17.89
2016-09-18T12:09:52.100Z,17.92
2016-09-18T12:10:52.054Z,17.79
2016-09-18T12:11:52.059Z,17.79
2016-09-18T12:12:52.060Z,17.85
2016-09-18T12:13:52.077Z,17.86
2016-09-18T12:14:52.064Z,17.79
2016-09-18T12:15:52.060Z,17.78
2016-09-18T12:16:52.093Z,17.78
2016-09-18T12:17:52.096Z,17.71
2016-09-18T12:18:52.085Z,17.78
2016-09-18T12:19:52.063Z,17.78
2016-09-18T12:20:52.081Z,17.7
2016-09-18T12:21:52.080Z,17.67
2016-09-18T12:22:52.082Z,17.67
2016-09-18T12:23:52.395Z,17.64
2016-09-18T12:24:52.085Z,17.64
2016-09-18T12:25:52.100Z,17.64
2016-09-18T12:26:52.084Z,17.6
2016-09-18T12:27:52.095Z,17.68
2016-09-18T12:28:52.095Z,17.71
2016-09-18T12:29:52.094Z,17.72
2016-09-18T12:30:52.097Z,17.83
2016-09-18T12:31:52.111Z,17.76
2016-09-18T12:32:52.091Z,17.94
2016-09-18T12:33:52.089Z,17.86
2016-09-18T12:34:52.089Z,17.9
2016-09-18T12:35:52.105Z,18.07
2016-09-18T12:36:52.110Z,18.01
2016-09-18T12:37:52.090Z,18.07
2016-09-18T12:38:52.095Z,18.15
2016-09-18T12:39:52.096Z,18.07
2016-09-18T12:40:52.096Z,18.15
2016-09-18T12:41:52.103Z,18.19
2016-09-18T12:42:52.096Z,18.2
2016-09-18T12:43:52.110Z,18.2
2016-09-18T12:44:52.121Z,18.23
2016-09-18T12:45:52.105Z,18.26
2016-09-18T12:46:52.123Z,18.34
2016-09-18T12:47:52.108Z,18.28
2016-09-18T12:48:52.108Z,18.23
2016-09-18T12:49:52.115Z,18.23
2016-09-18T12:50:52.118Z,18.23
2016-09-18T12:51:52.186Z,18.2
2016-09-18T12:52:52.182Z,18.25
2016-09-18T12:53:52.428Z,18.29
2016-09-18T12:54:52.117Z,18.19
2016-09-18T12:55:52.135Z,18.22